createdAt,value
2022-12-28T00:00:42.613Z,102936.19
2022-12-28T00:05:44.895Z,102933.59
2022-12-28T00:11:08.690Z,102926.47
2022-12-28T00:16:29.040Z,102917.72
2022-12-28T00:21:32.097Z,102922.97
2022-12-28T00:26:36.158Z,102922.09
2022-12-28T00:31:38.471Z,102916.78
2022-12-28T00:37:08.702Z,102914.13
2022-12-28T00:42:04.767Z,102899.00
2022-12-28T00:47:07.335Z,102906.13
2022-12-28T00:52:09.536Z,102897.34
2022-12-28T00:57:11.863Z,102902.72
2022-12-28T01:02:14.189Z,102905.31
2022-12-28T01:07:16.830Z,102906.19
2022-12-28T01:12:18.970Z,102900.88
2022-12-28T01:17:21.135Z,102903.59
2022-12-28T01:22:23.486Z,102902.72
2022-12-28T01:27:25.776Z,102899.19
2022-12-28T01:32:27.967Z,102906.31
2022-12-28T01:37:30.720Z,102907.25
2022-12-28T01:42:33.333Z,102905.47
2022-12-28T01:47:36.563Z,102897.50
2022-12-28T01:52:41.122Z,102891.38
2022-12-28T01:57:48.741Z,102899.28
2022-12-28T02:03:03.399Z,102898.44
2022-12-28T02:08:18.884Z,102895.78
2022-12-28T02:13:22.719Z,102901.03
2022-12-28T02:18:25.707Z,102899.28
2022-12-28T02:23:39.777Z,102890.47
2022-12-28T02:29:08.519Z,102888.72
2022-12-28T02:34:33.041Z,102894.09
2022-12-28T02:39:41.984Z,102894.03
2022-12-28T02:45:02.673Z,102891.38
2022-12-28T02:50:09.024Z,102887.00
2022-12-28T02:55:35.706Z,102886.94
2022-12-28T03:00:57.840Z,102879.84
2022-12-28T03:06:50.415Z,102869.22
2022-12-28T03:12:21.119Z,102866.63
2022-12-28T03:17:44.957Z,102859.66
2022-12-28T03:23:06.194Z,102850.78
2022-12-28T03:28:30.878Z,102853.53
2022-12-28T03:33:43.451Z,102851.63
2022-12-28T03:39:30.006Z,102850.00
2022-12-28T03:44:36.132Z,102848.22
2022-12-28T03:49:38.825Z,102851.69
2022-12-28T03:54:41.768Z,102845.56
2022-12-28T03:59:46.826Z,102838.44
2022-12-28T04:04:49.274Z,102832.28
2022-12-28T04:09:51.727Z,102838.38
2022-12-28T04:14:54.173Z,102828.69
2022-12-28T04:19:56.465Z,102835.78
2022-12-28T04:24:58.725Z,102839.28
2022-12-28T04:30:01.063Z,102845.47
2022-12-28T04:35:06.566Z,102848.13
2022-12-28T04:40:17.762Z,102842.91
2022-12-28T04:45:22.116Z,102834.94
2022-12-28T04:50:25.864Z,102819.03
2022-12-28T04:55:32.624Z,102829.69
2022-12-28T05:00:35.786Z,102827.91
2022-12-28T05:05:38.292Z,102832.28
2022-12-28T05:10:40.530Z,102833.13
2022-12-28T05:15:42.723Z,102834.09
2022-12-28T05:20:45.037Z,102835.88
2022-12-28T05:25:53.730Z,102835.06
2022-12-28T05:31:04.302Z,102838.66
2022-12-28T05:36:09.782Z,102833.28
2022-12-28T05:41:32.252Z,102836.00
2022-12-28T05:46:35.532Z,102825.38
2022-12-28T05:51:39.802Z,102827.09
2022-12-28T05:56:42.482Z,102833.28
2022-12-28T06:01:45.616Z,102829.75
2022-12-28T06:06:48.538Z,102821.78
2022-12-28T06:11:50.685Z,102809.47
2022-12-28T06:16:53.004Z,102796.44
2022-12-28T06:21:55.155Z,102815.63
2022-12-28T06:26:57.343Z,102805.00
2022-12-28T06:32:00.572Z,102805.03
2022-12-28T06:37:04.467Z,102804.19
2022-12-28T06:42:06.738Z,102806.81
2022-12-28T06:47:09.086Z,102810.34
2022-12-28T06:52:11.223Z,102815.75
2022-12-28T06:57:13.433Z,102808.66
2022-12-28T07:02:15.715Z,102805.19
2022-12-28T07:07:18.013Z,102806.00
2022-12-28T07:12:20.133Z,102820.19
2022-12-28T07:17:22.435Z,102823.72
2022-12-28T07:22:24.625Z,102825.41
2022-12-28T07:27:26.862Z,102828.94
2022-12-28T07:32:28.977Z,102810.78
2022-12-28T07:37:31.218Z,102818.47
2022-12-28T07:42:33.347Z,102814.94
2022-12-28T07:47:35.703Z,102807.84
2022-12-28T07:52:37.852Z,102814.88
2022-12-28T07:57:40.164Z,102812.22
2022-12-28T08:02:42.332Z,102818.53
2022-12-28T08:07:44.421Z,102818.53
2022-12-28T08:12:46.623Z,102807.91
2022-12-28T08:17:48.767Z,102809.75
2022-12-28T08:22:51.113Z,102815.00
2022-12-28T08:27:53.258Z,102811.44
2022-12-28T08:32:55.408Z,102806.97
2022-12-28T08:37:57.636Z,102811.44
2022-12-28T08:43:00.195Z,102798.31
2022-12-28T08:48:02.372Z,102805.31
2022-12-28T08:53:04.572Z,102800.97
2022-12-28T08:58:06.721Z,102804.47
2022-12-28T09:03:08.947Z,102799.16
2022-12-28T09:08:11.126Z,102793.00
2022-12-28T09:13:13.441Z,102807.09
2022-12-28T09:18:15.612Z,102812.50
2022-12-28T09:23:17.894Z,102809.84
2022-12-28T09:28:20.029Z,102821.34
2022-12-28T09:34:05.458Z,102824.84
2022-12-28T09:39:08.577Z,102828.44
2022-12-28T09:44:19.621Z,102826.66
2022-12-28T09:49:28.068Z,102836.28
2022-12-28T09:54:30.516Z,102821.34
2022-12-28T09:59:36.199Z,102813.66
2022-12-28T10:04:38.474Z,102819.44
2022-12-28T10:09:40.749Z,102817.66
2022-12-28T10:14:45.763Z,102818.53
2022-12-28T10:19:48.640Z,102807.09
2022-12-28T10:24:51.125Z,102807.19
2022-12-28T10:29:54.773Z,102804.47
2022-12-28T10:35:00.671Z,102804.41
2022-12-28T10:40:16.968Z,102792.00
2022-12-28T10:45:23.039Z,102793.78
2022-12-28T10:50:41.938Z,102782.41
2022-12-28T10:55:44.419Z,102788.53
2022-12-28T11:00:58.696Z,102764.75
2022-12-28T11:06:26.321Z,102762.97
2022-12-28T11:11:29.939Z,102756.63
2022-12-28T11:16:37.600Z,102759.28
2022-12-28T11:21:42.583Z,102747.81
2022-12-28T11:26:49.301Z,102743.44
2022-12-28T11:32:01.133Z,102735.47
2022-12-28T11:37:03.540Z,102726.69
2022-12-28T11:47:36.498Z,102702.63
2022-12-28T11:52:51.347Z,102685.91
2022-12-28T11:57:54.845Z,102683.19
2022-12-28T12:03:03.147Z,102668.31
2022-12-28T12:08:17.658Z,102670.09
2022-12-28T12:13:25.673Z,102658.63
2022-12-28T12:18:30.248Z,102655.03
2022-12-28T12:23:49.010Z,102648.94
2022-12-28T12:28:53.081Z,102640.81
2022-12-28T12:34:00.797Z,102628.34
2022-12-28T12:39:30.693Z,102617.78
2022-12-28T12:44:51.169Z,102607.19
2022-12-28T12:50:16.354Z,102593.06
2022-12-28T12:55:52.549Z,102585.94
2022-12-28T13:01:03.478Z,102582.31
2022-12-28T13:06:06.899Z,102574.28
2022-12-28T13:11:10.988Z,102561.22
2022-12-28T13:16:19.360Z,102568.16
2022-12-28T13:21:23.152Z,102564.59
2022-12-28T13:26:28.723Z,102560.22
2022-12-28T13:31:36.587Z,102555.78
2022-12-28T13:37:07.916Z,102547.81
2022-12-28T13:42:18.442Z,102539.84
2022-12-28T13:47:28.518Z,102535.34
2022-12-28T13:52:40.505Z,102535.34
2022-12-28T13:57:49.988Z,102530.84
2022-12-28T14:02:56.414Z,102517.69
2022-12-28T14:07:59.691Z,102519.41
2022-12-28T14:13:04.478Z,102522.91
2022-12-28T14:18:07.235Z,102514.94
2022-12-28T14:23:28.317Z,102517.59
2022-12-28T14:28:39.454Z,102514.94
2022-12-28T14:33:52.722Z,102516.69
2022-12-28T14:39:04.186Z,102513.25
2022-12-28T14:44:15.552Z,102508.66
2022-12-28T14:49:29.080Z,102508.72
2022-12-28T14:54:32.779Z,102518.41
2022-12-28T14:59:38.350Z,102506.00
2022-12-28T15:04:42.278Z,102497.97
2022-12-28T15:09:46.056Z,102495.41
2022-12-28T15:14:48.271Z,102493.72
2022-12-28T15:19:50.304Z,102492.81
2022-12-28T15:24:52.615Z,102483.34
2022-12-28T15:30:05.524Z,102491.00
2022-12-28T15:35:08.999Z,102485.84
2022-12-28T15:40:11.529Z,102491.88
2022-12-28T15:45:14.496Z,102490.94
2022-12-28T15:50:16.818Z,102490.94
2022-12-28T15:55:19.084Z,102487.44
2022-12-28T16:00:21.764Z,102476.81
2022-12-28T16:05:23.978Z,102476.81
2022-12-28T16:10:26.315Z,102478.53
2022-12-28T16:15:28.689Z,102463.53
2022-12-28T16:20:30.927Z,102449.34
2022-12-28T16:25:33.089Z,102452.94
2022-12-28T16:30:48.169Z,102450.28
2022-12-28T16:35:54.562Z,102440.53
2022-12-28T16:41:01.415Z,102439.53
2022-12-28T16:46:07.404Z,102436.16
2022-12-28T16:51:10.440Z,102438.66
2022-12-28T16:56:12.885Z,102436.94
2022-12-28T17:01:15.217Z,102434.28
2022-12-28T17:06:17.943Z,102435.16
2022-12-28T17:11:20.142Z,102435.91
2022-12-28T17:16:22.372Z,102442.19
2022-12-28T17:21:24.661Z,102436.78
2022-12-28T17:26:27.449Z,102435.16
2022-12-28T17:31:29.809Z,102443.13
2022-12-28T17:36:32.072Z,102443.13
2022-12-28T17:41:34.323Z,102437.28
2022-12-28T17:46:40.950Z,102452.78
2022-12-28T17:51:43.856Z,102446.53
2022-12-28T17:56:46.158Z,102451.81
2022-12-28T18:01:48.426Z,102449.34
2022-12-28T18:06:50.640Z,102444.03
2022-12-28T18:11:53.048Z,102439.66
2022-12-28T18:16:56.104Z,102443.25
2022-12-28T18:21:58.401Z,102447.56
2022-12-28T18:27:00.567Z,102455.53
2022-12-28T18:32:02.850Z,102459.91
2022-12-28T18:37:05.088Z,102453.78
2022-12-28T18:42:07.297Z,102457.38
2022-12-28T18:47:09.711Z,102469.72
2022-12-28T18:52:12.067Z,102463.53
2022-12-28T18:57:14.302Z,102458.25
2022-12-28T19:02:19.715Z,102454.72
2022-12-28T19:07:22.220Z,102446.78
2022-12-28T19:12:24.392Z,102447.63
2022-12-28T19:17:26.613Z,102444.13
2022-12-28T19:22:30.103Z,102453.88
2022-12-28T19:27:32.257Z,102457.38
2022-12-28T19:32:34.457Z,102454.72
2022-12-28T19:37:37.596Z,102455.59
2022-12-28T19:42:39.674Z,102452.06
2022-12-28T19:47:42.122Z,102455.59
2022-12-28T19:52:44.343Z,102451.16
2022-12-28T19:57:46.508Z,102450.22
2022-12-28T20:02:48.924Z,102452.94
2022-12-28T20:07:51.138Z,102449.41
2022-12-28T20:12:53.371Z,102455.72
2022-12-28T20:17:55.639Z,102457.41
2022-12-28T20:22:57.929Z,102455.66
2022-12-28T20:28:00.161Z,102463.63
2022-12-28T20:33:02.346Z,102449.47
2022-12-28T20:38:04.579Z,102432.63
2022-12-28T20:43:25.026Z,102427.38
2022-12-28T20:48:27.895Z,102436.16
2022-12-28T20:53:30.179Z,102430.03
2022-12-28T20:58:32.463Z,102430.88
2022-12-28T21:03:34.704Z,102426.47
2022-12-28T21:08:36.956Z,102421.09
2022-12-28T21:13:43.874Z,102424.59
2022-12-28T21:18:46.993Z,102420.22
2022-12-28T21:23:49.489Z,102413.28
2022-12-28T21:28:51.773Z,102415.06
2022-12-28T21:33:57.049Z,102404.34
2022-12-28T21:38:59.991Z,102407.97
2022-12-28T21:44:02.222Z,102399.94
2022-12-28T21:49:05.582Z,102401.81
2022-12-28T21:54:13.085Z,102416.84
2022-12-28T21:59:15.368Z,102412.41
2022-12-28T22:04:41.719Z,102416.75
2022-12-28T22:10:02.834Z,102421.22
2022-12-28T22:15:26.075Z,102414.97
2022-12-28T22:20:30.187Z,102415.84
2022-12-28T22:25:32.802Z,102406.25
2022-12-28T22:30:36.951Z,102412.41
2022-12-28T22:35:39.147Z,102413.34
2022-12-28T22:40:41.476Z,102419.50
2022-12-28T22:45:43.756Z,102407.19
2022-12-28T22:50:45.877Z,102409.84
2022-12-28T22:55:58.945Z,102400.16
2022-12-28T23:01:18.620Z,102399.22
2022-12-28T23:06:21.393Z,102389.47
2022-12-28T23:11:42.675Z,102396.38
2022-12-28T23:16:44.956Z,102380.66
2022-12-28T23:22:05.723Z,102385.94
2022-12-28T23:27:22.245Z,102387.75
2022-12-28T23:32:24.471Z,102385.16
2022-12-28T23:37:26.890Z,102381.66
2022-12-28T23:42:29.045Z,102378.06
2022-12-28T23:47:31.701Z,102378.94
2022-12-28T23:52:34.312Z,102367.38
2022-12-28T23:57:37.288Z,102354.19
